Time;durP1;ratioP1;P1;durP2;ratioP2;P2;SDS_P1;SDS_P2;PMS_P1;PMS_P2;Temp;Humidity;BMP_temperature;BMP_pressure;BME280_temperature;BME280_humidity;BME280_pressure;Samples;Min_cycle;Max_cycle;Signal;HPM_P1;HPM_P2
2023/05/20 00:01:41;;;;;;;15.63;7.15;;;;;;;;;;5154249;27;20031;-78
2023/05/20 00:04:07;;;;;;;15.40;6.40;;;;;;;;;;5130135;27;20051;-78
2023/05/20 00:06:33;;;;;;;16.92;6.55;;;;;;;;;;5137576;27;20070;-77
2023/05/20 00:08:59;;;;;;;18.58;7.57;;;;;;;;;;5134870;27;20035;-77
2023/05/20 00:11:26;;;;;;;17.88;6.00;;;;;;;;;;5157171;27;20096;-77
2023/05/20 00:13:52;;;;;;;14.52;6.70;;;;;;;;;;5132850;27;20043;-77
2023/05/20 00:16:18;;;;;;;15.05;6.30;;;;;;;;;;5124390;27;20084;-77
2023/05/20 00:18:44;;;;;;;13.70;6.75;;;;;;;;;;5145095;27;20390;-78
2023/05/20 00:21:10;;;;;;;17.08;6.80;;;;;;;;;;5131701;27;20067;-77
2023/05/20 00:23:36;;;;;;;16.38;7.25;;;;;;;;;;5128052;27;20063;-77
2023/05/20 00:26:02;;;;;;;16.65;7.10;;;;;;;;;;5156126;27;20390;-77
2023/05/20 00:28:29;;;;;;;14.48;7.00;;;;;;;;;;5131734;27;20141;-77
2023/05/20 00:30:55;;;;;;;13.38;7.30;;;;;;;;;;5137153;27;20043;-79
2023/05/20 00:33:21;;;;;;;15.25;7.35;;;;;;;;;;5134502;27;20042;-79
2023/05/20 00:35:47;;;;;;;18.42;7.15;;;;;;;;;;5120862;27;20052;-77
2023/05/20 00:38:13;;;;;;;16.23;7.05;;;;;;;;;;5127050;27;20486;-79
2023/05/20 00:40:39;;;;;;;17.13;7.18;;;;;;;;;;5130000;27;20478;-79
2023/05/20 00:43:05;;;;;;;19.40;7.65;;;;;;;;;;5117637;27;20045;-79
2023/05/20 00:45:32;;;;;;;15.25;6.85;;;;;;;;;;5118318;27;20046;-77
2023/05/20 00:48:00;;;;;;;15.60;7.20;;;;;;;;;;5119191;27;20454;-77
2023/05/20 00:50:27;;;;;;;16.50;7.13;;;;;;;;;;5117815;27;20099;-77
2023/05/20 00:52:54;;;;;;;14.02;6.03;;;;;;;;;;5152165;27;20041;-77
2023/05/20 00:55:20;;;;;;;16.83;6.70;;;;;;;;;;5116444;27;20135;-77
2023/05/20 00:57:47;;;;;;;17.50;7.65;;;;;;;;;;5151161;27;20099;-77
2023/05/20 01:00:13;;;;;;;12.93;6.68;;;;;;;;;;5099921;27;20035;-77
2023/05/20 01:02:39;;;;;;;17.33;7.45;;;;;;;;;;5136233;27;20042;-76
2023/05/20 01:05:06;;;;;;;16.35;7.55;;;;;;;;;;5120089;27;20039;-78
2023/05/20 01:07:32;;;;;;;14.65;7.00;;;;;;;;;;5129496;27;20097;-78
2023/05/20 01:09:59;;;;;;;16.55;7.88;;;;;;;;;;5143734;27;20034;-78
2023/05/20 01:12:30;;;;;;;14.07;7.00;;;;;;;;;;5128771;27;20372;-78
2023/05/20 01:15:03;;;;;;;18.17;7.70;;;;;;;;;;5110476;27;20034;-78
2023/05/20 01:17:31;;;;;;;17.45;7.32;;;;;;;;;;5136442;27;20050;-77
2023/05/20 01:19:58;;;;;;;16.05;7.95;;;;;;;;;;5154195;27;20071;-78
2023/05/20 01:22:28;;;;;;;16.50;6.97;;;;;;;;;;5133329;27;20054;-77
2023/05/20 01:24:55;;;;;;;14.15;6.97;;;;;;;;;;5134454;27;20422;-77
2023/05/20 01:27:22;;;;;;;17.50;6.85;;;;;;;;;;5134048;27;20043;-78
2023/05/20 01:29:49;;;;;;;21.98;8.55;;;;;;;;;;5131346;27;20080;-77
2023/05/20 01:32:20;;;;;;;16.17;7.15;;;;;;;;;;5131815;27;20035;-78
2023/05/20 01:34:48;;;;;;;12.73;7.53;;;;;;;;;;5153006;27;20030;-78
2023/05/20 01:37:14;;;;;;;15.70;7.20;;;;;;;;;;5125801;27;20039;-78
2023/05/20 01:39:41;;;;;;;16.90;7.10;;;;;;;;;;5147683;27;20053;-78
2023/05/20 01:42:08;;;;;;;20.23;7.10;;;;;;;;;;5149853;27;20428;-78
2023/05/20 01:44:34;;;;;;;12.98;7.30;;;;;;;;;;5133125;27;20542;-77
2023/05/20 01:47:00;;;;;;;12.07;6.32;;;;;;;;;;5136130;27;20034;-78
2023/05/20 01:49:27;;;;;;;14.55;6.63;;;;;;;;;;5115625;27;20470;-78
2023/05/20 01:51:53;;;;;;;18.95;7.68;;;;;;;;;;5132363;27;20035;-78
2023/05/20 01:54:19;;;;;;;19.23;7.00;;;;;;;;;;5154440;27;20395;-79
2023/05/20 01:56:49;;;;;;;15.18;7.05;;;;;;;;;;5147881;27;20035;-79
2023/05/20 01:59:15;;;;;;;16.52;7.25;;;;;;;;;;5133880;27;20421;-79
2023/05/20 02:01:41;;;;;;;16.50;6.65;;;;;;;;;;5133856;27;20043;-79
2023/05/20 02:04:07;;;;;;;13.65;7.35;;;;;;;;;;5131908;27;20797;-79
2023/05/20 02:06:33;;;;;;;12.73;7.20;;;;;;;;;;5134563;27;20046;-79
2023/05/20 02:08:59;;;;;;;18.52;7.30;;;;;;;;;;5143437;27;20569;-79
2023/05/20 02:11:26;;;;;;;15.45;7.75;;;;;;;;;;5127859;27;20073;-79
2023/05/20 02:13:52;;;;;;;18.20;7.90;;;;;;;;;;5123002;27;20031;-79
2023/05/20 02:16:18;;;;;;;13.00;6.75;;;;;;;;;;5127144;27;20062;-79
2023/05/20 02:18:44;;;;;;;18.63;7.50;;;;;;;;;;5153848;27;20044;-78
2023/05/20 02:21:10;;;;;;;17.50;7.13;;;;;;;;;;5132224;27;20538;-77
2023/05/20 02:23:36;;;;;;;16.38;8.30;;;;;;;;;;5151936;27;20367;-77
2023/05/20 02:26:02;;;;;;;16.83;7.57;;;;;;;;;;5134237;27;20054;-78
2023/05/20 02:28:29;;;;;;;14.00;7.15;;;;;;;;;;5124741;27;20387;-79
2023/05/20 02:30:55;;;;;;;17.50;7.38;;;;;;;;;;5130319;27;20035;-78
2023/05/20 02:33:21;;;;;;;17.17;7.60;;;;;;;;;;5105407;27;20116;-79
2023/05/20 02:35:47;;;;;;;12.82;7.78;;;;;;;;;;5128910;27;20039;-79
2023/05/20 02:38:13;;;;;;;15.45;8.20;;;;;;;;;;5125174;27;20039;-79
2023/05/20 02:40:39;;;;;;;15.90;7.57;;;;;;;;;;5144182;27;20458;-79
2023/05/20 02:43:05;;;;;;;14.80;7.45;;;;;;;;;;5134372;27;20066;-79
2023/05/20 02:45:31;;;;;;;14.88;7.00;;;;;;;;;;5132963;27;20422;-78
2023/05/20 02:47:57;;;;;;;15.77;7.63;;;;;;;;;;5135611;27;20042;-79
2023/05/20 02:50:24;;;;;;;16.67;7.25;;;;;;;;;;5135914;27;20475;-78
2023/05/20 02:52:50;;;;;;;15.15;7.70;;;;;;;;;;5135976;27;20487;-79
2023/05/20 02:55:16;;;;;;;15.23;7.60;;;;;;;;;;5153989;27;20039;-79
2023/05/20 02:57:42;;;;;;;16.85;7.45;;;;;;;;;;5135739;27;20042;-78
2023/05/20 03:00:12;;;;;;;13.65;6.93;;;;;;;;;;5135294;27;20035;-78
2023/05/20 03:02:38;;;;;;;14.80;6.97;;;;;;;;;;5153897;27;20084;-79
2023/05/20 03:05:04;;;;;;;14.35;7.00;;;;;;;;;;5135966;27;20031;-77
2023/05/20 03:07:31;;;;;;;12.75;6.85;;;;;;;;;;5118869;27;20054;-76
2023/05/20 03:09:58;;;;;;;15.98;7.30;;;;;;;;;;5154548;27;20039;-77
2023/05/20 03:12:27;;;;;;;14.45;6.47;;;;;;;;;;5136819;27;20035;-77
2023/05/20 03:14:54;;;;;;;15.20;7.05;;;;;;;;;;5123211;28;20118;-77
2023/05/20 03:17:23;;;;;;;14.55;6.32;;;;;;;;;;5152948;27;20053;-78
2023/05/20 03:19:49;;;;;;;14.80;7.63;;;;;;;;;;5135883;27;20038;-76
2023/05/20 03:22:15;;;;;;;16.60;6.57;;;;;;;;;;5154178;27;20074;-78
2023/05/20 03:24:42;;;;;;;13.13;6.75;;;;;;;;;;5109963;28;20462;-79
2023/05/20 03:27:08;;;;;;;11.63;6.78;;;;;;;;;;5129977;27;20376;-79
2023/05/20 03:29:35;;;;;;;15.20;7.07;;;;;;;;;;5118505;27;20360;-79
2023/05/20 03:32:01;;;;;;;14.30;6.60;;;;;;;;;;5153955;27;20106;-78
2023/05/20 03:34:29;;;;;;;17.02;6.70;;;;;;;;;;5154124;27;20046;-79
2023/05/20 03:36:56;;;;;;;13.52;7.05;;;;;;;;;;5118466;27;20047;-77
2023/05/20 03:39:22;;;;;;;11.50;6.22;;;;;;;;;;5153795;27;20081;-77
2023/05/20 03:41:48;;;;;;;15.25;6.82;;;;;;;;;;5154452;27;20039;-79
2023/05/20 03:44:14;;;;;;;15.10;7.07;;;;;;;;;;5135028;27;20047;-77
2023/05/20 03:46:40;;;;;;;13.40;6.70;;;;;;;;;;5118360;27;20407;-78
2023/05/20 03:49:06;;;;;;;15.00;7.40;;;;;;;;;;5135142;27;20041;-78
2023/05/20 03:51:32;;;;;;;12.30;6.82;;;;;;;;;;5118222;27;20049;-77
2023/05/20 03:53:58;;;;;;;11.15;6.47;;;;;;;;;;5135191;27;20087;-79
2023/05/20 03:56:25;;;;;;;11.50;7.07;;;;;;;;;;5153932;27;20061;-79
2023/05/20 03:58:51;;;;;;;14.48;6.80;;;;;;;;;;5138994;27;20126;-79
2023/05/20 04:01:17;;;;;;;10.95;6.30;;;;;;;;;;5137046;27;20047;-79
2023/05/20 04:03:43;;;;;;;12.07;6.35;;;;;;;;;;5152115;27;20060;-79
2023/05/20 04:06:09;;;;;;;15.73;7.13;;;;;;;;;;5128256;27;20047;-79
2023/05/20 04:08:35;;;;;;;14.38;6.78;;;;;;;;;;5119527;27;20377;-80
2023/05/20 04:11:02;;;;;;;12.35;6.50;;;;;;;;;;5138676;27;20123;-77
2023/05/20 04:13:28;;;;;;;11.30;6.03;;;;;;;;;;5157057;27;20039;-78
2023/05/20 04:15:55;;;;;;;14.02;6.70;;;;;;;;;;5145039;27;20039;-78
2023/05/20 04:18:21;;;;;;;14.43;5.28;;;;;;;;;;5149680;27;20035;-78
2023/05/20 04:20:47;;;;;;;13.48;5.85;;;;;;;;;;5138611;27;20390;-77
2023/05/20 04:23:13;;;;;;;11.18;5.35;;;;;;;;;;5157099;27;20042;-78
2023/05/20 04:25:40;;;;;;;12.18;6.22;;;;;;;;;;5138313;27;20038;-78
2023/05/20 04:28:09;;;;;;;11.30;5.47;;;;;;;;;;5156475;27;20049;-78
2023/05/20 04:30:35;;;;;;;15.00;5.47;;;;;;;;;;5157073;27;20098;-75
2023/05/20 04:33:02;;;;;;;12.52;6.00;;;;;;;;;;5157088;27;20058;-78
2023/05/20 04:35:28;;;;;;;10.10;5.57;;;;;;;;;;5126112;27;20047;-78
2023/05/20 04:37:54;;;;;;;11.27;5.75;;;;;;;;;;5142222;27;20091;-75
2023/05/20 04:40:21;;;;;;;9.90;5.10;;;;;;;;;;5144522;27;20122;-75
2023/05/20 04:42:47;;;;;;;12.38;5.07;;;;;;;;;;5156979;27;20026;-76
2023/05/20 04:45:13;;;;;;;10.98;5.22;;;;;;;;;;5138552;27;20109;-75
2023/05/20 04:47:40;;;;;;;8.52;5.00;;;;;;;;;;5133697;27;20100;-75
2023/05/20 04:50:10;;;;;;;9.23;4.93;;;;;;;;;;5128947;27;20508;-78
2023/05/20 04:52:41;;;;;;;8.43;4.50;;;;;;;;;;5144423;27;20566;-78
2023/05/20 04:55:09;;;;;;;8.35;4.75;;;;;;;;;;5124050;27;20031;-78
2023/05/20 04:57:37;;;;;;;11.38;5.38;;;;;;;;;;5156825;27;20038;-79
2023/05/20 05:00:06;;;;;;;8.70;4.90;;;;;;;;;;5137748;27;20038;-79
2023/05/20 05:02:32;;;;;;;9.30;5.05;;;;;;;;;;5155945;27;20039;-78
2023/05/20 05:04:58;;;;;;;10.05;4.68;;;;;;;;;;5137589;27;20057;-79
2023/05/20 05:07:25;;;;;;;6.93;4.10;;;;;;;;;;5116665;27;20066;-79
2023/05/20 05:09:51;;;;;;;7.60;3.88;;;;;;;;;;5136030;27;20403;-79
2023/05/20 05:12:17;;;;;;;7.63;3.90;;;;;;;;;;5155925;27;20041;-78
2023/05/20 05:14:43;;;;;;;8.02;4.43;;;;;;;;;;5120510;27;20043;-79
2023/05/20 05:17:09;;;;;;;9.48;4.25;;;;;;;;;;5137550;27;20072;-79
2023/05/20 05:19:35;;;;;;;7.88;4.32;;;;;;;;;;5120203;27;20049;-79
2023/05/20 05:22:02;;;;;;;7.80;4.47;;;;;;;;;;5155890;27;20364;-79
2023/05/20 05:24:28;;;;;;;7.03;3.78;;;;;;;;;;5137118;27;20042;-79
2023/05/20 05:26:55;;;;;;;9.88;3.50;;;;;;;;;;5137399;27;20051;-79
2023/05/20 05:29:21;;;;;;;8.27;3.65;;;;;;;;;;5136692;27;20034;-79
2023/05/20 05:31:47;;;;;;;13.25;4.32;;;;;;;;;;5120233;27;20043;-79
2023/05/20 05:34:13;;;;;;;7.88;3.85;;;;;;;;;;5122836;27;20035;-79
2023/05/20 05:36:40;;;;;;;6.13;3.38;;;;;;;;;;5156002;27;20042;-79
2023/05/20 05:39:06;;;;;;;8.93;3.90;;;;;;;;;;5155776;27;20121;-78
2023/05/20 05:41:32;;;;;;;7.60;3.55;;;;;;;;;;5155202;27;20030;-79
2023/05/20 05:43:58;;;;;;;8.70;3.78;;;;;;;;;;5155679;27;20049;-76
2023/05/20 05:46:24;;;;;;;8.07;3.40;;;;;;;;;;5155490;27;20039;-77
2023/05/20 05:48:50;;;;;;;9.00;3.65;;;;;;;;;;5119819;27;20042;-75
2023/05/20 05:51:17;;;;;;;5.90;3.22;;;;;;;;;;5137191;27;20471;-75
2023/05/20 05:53:43;;;;;;;5.75;3.40;;;;;;;;;;5136821;27;20039;-75
2023/05/20 05:56:09;;;;;;;7.88;3.83;;;;;;;;;;5136938;27;20043;-76
2023/05/20 05:58:35;;;;;;;5.30;3.15;;;;;;;;;;5136922;27;20494;-75
2023/05/20 06:01:01;;;;;;;7.50;3.08;;;;;;;;;;5136766;27;20103;-79
2023/05/20 06:03:28;;;;;;;5.18;3.13;;;;;;;;;;5100328;27;20046;-76
2023/05/20 06:05:55;;;;;;;5.75;3.00;;;;;;;;;;5127621;27;20047;-76
2023/05/20 06:08:21;;;;;;;4.95;2.80;;;;;;;;;;5136955;27;20039;-79
2023/05/20 06:10:50;;;;;;;6.53;2.92;;;;;;;;;;5136805;27;20051;-79
2023/05/20 06:13:16;;;;;;;7.28;2.40;;;;;;;;;;5134842;27;20122;-79
2023/05/20 06:15:44;;;;;;;3.80;2.20;;;;;;;;;;5107025;27;20042;-79
2023/05/20 06:18:11;;;;;;;5.15;2.55;;;;;;;;;;5136759;27;20053;-79
2023/05/20 06:20:37;;;;;;;6.35;2.38;;;;;;;;;;5140234;27;20039;-80
2023/05/20 06:23:03;;;;;;;5.60;2.40;;;;;;;;;;5136154;27;20050;-80
2023/05/20 06:25:29;;;;;;;4.18;2.25;;;;;;;;;;5118996;27;20539;-80
2023/05/20 06:27:55;;;;;;;5.85;2.20;;;;;;;;;;5136561;27;20403;-80
2023/05/20 06:30:21;;;;;;;4.72;2.15;;;;;;;;;;5119279;27;20039;-80
2023/05/20 06:32:47;;;;;;;3.80;2.00;;;;;;;;;;5110989;27;20564;-80
2023/05/20 06:35:13;;;;;;;7.88;2.30;;;;;;;;;;5113395;27;20126;-76
2023/05/20 06:37:40;;;;;;;6.88;2.05;;;;;;;;;;5119124;27;20042;-77
2023/05/20 06:40:06;;;;;;;6.78;1.95;;;;;;;;;;5123962;27;20125;-79
2023/05/20 06:42:32;;;;;;;4.10;1.63;;;;;;;;;;5153176;27;20084;-77
2023/05/20 06:44:58;;;;;;;4.18;2.20;;;;;;;;;;5136244;27;20133;-76
2023/05/20 06:47:25;;;;;;;3.75;1.90;;;;;;;;;;5135961;27;20046;-78
2023/05/20 06:49:51;;;;;;;5.03;1.98;;;;;;;;;;5154958;27;20494;-77
2023/05/20 06:52:17;;;;;;;3.90;1.92;;;;;;;;;;5119107;27;20479;-79
2023/05/20 06:54:43;;;;;;;4.00;1.70;;;;;;;;;;5136162;27;20554;-76
2023/05/20 06:57:09;;;;;;;5.43;2.00;;;;;;;;;;5136047;27;20043;-77
2023/05/20 06:59:36;;;;;;;3.95;1.60;;;;;;;;;;5135859;27;20085;-77
2023/05/20 07:02:02;;;;;;;3.40;1.77;;;;;;;;;;5136248;27;20160;-77
2023/05/20 07:04:28;;;;;;;3.95;1.70;;;;;;;;;;5135925;27;20055;-77
2023/05/20 07:06:54;;;;;;;3.03;1.70;;;;;;;;;;5098175;28;20504;-80
2023/05/20 07:09:20;;;;;;;3.42;1.80;;;;;;;;;;5146268;27;20509;-80
2023/05/20 07:11:47;;;;;;;5.70;1.70;;;;;;;;;;5136115;27;20034;-80
2023/05/20 07:14:13;;;;;;;5.20;1.90;;;;;;;;;;5154838;27;20039;-80
2023/05/20 07:16:39;;;;;;;4.13;1.80;;;;;;;;;;5121639;27;20065;-77
2023/05/20 07:19:05;;;;;;;3.17;1.67;;;;;;;;;;5136124;27;20053;-76
2023/05/20 07:21:31;;;;;;;4.43;1.83;;;;;;;;;;5114858;28;20035;-79
2023/05/20 07:23:57;;;;;;;3.70;1.92;;;;;;;;;;5135991;27;20390;-76
2023/05/20 07:26:23;;;;;;;2.83;1.55;;;;;;;;;;5153989;27;20039;-77
2023/05/20 07:28:50;;;;;;;4.20;1.90;;;;;;;;;;5135732;27;20475;-78
2023/05/20 07:31:16;;;;;;;5.38;1.80;;;;;;;;;;5136416;27;20101;-79
2023/05/20 07:33:42;;;;;;;4.68;1.75;;;;;;;;;;5137978;27;20047;-77
2023/05/20 07:36:08;;;;;;;5.50;1.92;;;;;;;;;;5146084;27;20030;-78
2023/05/20 07:38:35;;;;;;;4.75;2.00;;;;;;;;;;5139716;27;20081;-77
2023/05/20 07:41:01;;;;;;;3.08;1.55;;;;;;;;;;5158420;27;20030;-75
2023/05/20 07:43:27;;;;;;;7.70;1.77;;;;;;;;;;5158354;27;20039;-73
2023/05/20 07:45:53;;;;;;;3.70;1.50;;;;;;;;;;5143586;27;20171;-78
2023/05/20 07:48:19;;;;;;;5.65;1.75;;;;;;;;;;5158106;27;20501;-80
2023/05/20 07:50:45;;;;;;;3.03;1.60;;;;;;;;;;5139850;27;20493;-79
2023/05/20 07:53:11;;;;;;;4.07;1.63;;;;;;;;;;5139832;27;20035;-80
2023/05/20 07:55:38;;;;;;;4.57;1.70;;;;;;;;;;5139390;27;20030;-79
2023/05/20 07:58:04;;;;;;;4.65;1.80;;;;;;;;;;5143508;27;20046;-80
2023/05/20 08:00:30;;;;;;;4.05;1.70;;;;;;;;;;5114035;27;20561;-79
2023/05/20 08:02:56;;;;;;;6.72;1.98;;;;;;;;;;5152880;27;20487;-80
2023/05/20 08:05:22;;;;;;;3.53;1.60;;;;;;;;;;5139301;27;20053;-82
2023/05/20 08:07:48;;;;;;;4.93;1.80;;;;;;;;;;5122285;27;20510;-80
2023/05/20 08:10:14;;;;;;;7.13;1.85;;;;;;;;;;5117755;27;20113;-80
2023/05/20 08:12:40;;;;;;;5.30;1.80;;;;;;;;;;5129998;27;20054;-80
2023/05/20 08:15:07;;;;;;;6.13;1.80;;;;;;;;;;5122564;27;21292;-80
2023/05/20 08:17:34;;;;;;;6.50;1.83;;;;;;;;;;5140354;27;20152;-79
2023/05/20 08:20:00;;;;;;;3.97;1.85;;;;;;;;;;5144686;27;20054;-80
2023/05/20 08:22:26;;;;;;;3.50;1.85;;;;;;;;;;5123807;27;20471;-80
2023/05/20 08:24:52;;;;;;;2.80;1.58;;;;;;;;;;5123430;27;20034;-80
2023/05/20 08:27:19;;;;;;;5.25;2.00;;;;;;;;;;5136043;27;20039;-76
2023/05/20 08:29:45;;;;;;;3.60;1.67;;;;;;;;;;5149413;27;20119;-75
2023/05/20 08:32:11;;;;;;;3.45;1.52;;;;;;;;;;5157756;27;20061;-76
2023/05/20 08:34:37;;;;;;;4.72;1.58;;;;;;;;;;5158125;27;20049;-78
2023/05/20 08:37:03;;;;;;;3.35;1.60;;;;;;;;;;5139364;27;20547;-80
2023/05/20 08:39:30;;;;;;;7.15;1.73;;;;;;;;;;5139033;27;20046;-80
2023/05/20 08:41:57;;;;;;;3.65;1.75;;;;;;;;;;5157601;27;20053;-80
2023/05/20 08:44:24;;;;;;;4.43;1.60;;;;;;;;;;5137349;27;20022;-77
2023/05/20 08:46:50;;;;;;;5.18;1.80;;;;;;;;;;5132456;27;20054;-76
2023/05/20 08:49:16;;;;;;;5.95;1.70;;;;;;;;;;5159069;27;20479;-76
2023/05/20 08:51:42;;;;;;;3.22;1.83;;;;;;;;;;5141135;27;20487;-75
2023/05/20 08:54:10;;;;;;;3.20;1.50;;;;;;;;;;5178695;27;20498;-80
2023/05/20 08:56:38;;;;;;;2.95;1.63;;;;;;;;;;5161598;27;20020;-79
2023/05/20 08:59:05;;;;;;;5.00;1.70;;;;;;;;;;5145821;27;20062;-75
2023/05/20 09:01:31;;;;;;;4.28;1.80;;;;;;;;;;5178723;27;20068;-79
2023/05/20 09:03:57;;;;;;;3.28;1.70;;;;;;;;;;5140832;27;20050;-80
2023/05/20 09:06:23;;;;;;;4.55;1.75;;;;;;;;;;5124725;27;20495;-78
2023/05/20 09:08:52;;;;;;;3.72;1.73;;;;;;;;;;5150468;27;20444;-78
2023/05/20 09:11:21;;;;;;;3.97;1.70;;;;;;;;;;5131843;27;20041;-77
2023/05/20 09:13:47;;;;;;;3.80;1.65;;;;;;;;;;5121986;27;20043;-78
2023/05/20 09:16:13;;;;;;;6.07;1.85;;;;;;;;;;5126937;27;20395;-77
2023/05/20 09:18:40;;;;;;;3.83;1.73;;;;;;;;;;5136019;27;20034;-75
2023/05/20 09:21:06;;;;;;;2.72;1.65;;;;;;;;;;5137671;27;20122;-79
2023/05/20 09:23:32;;;;;;;8.07;1.90;;;;;;;;;;5139388;27;20042;-79
2023/05/20 09:26:01;;;;;;;3.72;1.83;;;;;;;;;;5135434;27;20047;-79
2023/05/20 09:28:27;;;;;;;5.07;1.77;;;;;;;;;;5132001;27;20114;-80
2023/05/20 09:31:00;;;;;;;4.05;1.90;;;;;;;;;;5137596;27;20035;-78
2023/05/20 09:33:28;;;;;;;4.25;1.90;;;;;;;;;;5137485;27;20043;-79
2023/05/20 09:36:01;;;;;;;7.50;2.25;;;;;;;;;;5155858;27;20510;-78
2023/05/20 09:38:34;;;;;;;6.18;2.45;;;;;;;;;;5155907;27;20039;-76
2023/05/20 09:41:01;;;;;;;3.33;1.80;;;;;;;;;;5131110;27;20047;-75
2023/05/20 09:43:27;;;;;;;5.05;2.00;;;;;;;;;;5129467;27;20432;-75
2023/05/20 09:45:54;;;;;;;4.57;1.98;;;;;;;;;;5155308;27;20049;-78
2023/05/20 09:48:21;;;;;;;5.22;1.90;;;;;;;;;;5137115;27;20042;-76
2023/05/20 09:50:47;;;;;;;6.43;1.90;;;;;;;;;;5137574;27;20394;-78
2023/05/20 09:53:14;;;;;;;3.42;2.00;;;;;;;;;;5120238;27;20042;-75
2023/05/20 09:55:40;;;;;;;4.20;1.90;;;;;;;;;;5155218;27;20038;-78
2023/05/20 09:58:06;;;;;;;5.88;1.67;;;;;;;;;;5119632;27;20080;-75
2023/05/20 10:00:33;;;;;;;5.25;1.83;;;;;;;;;;5125396;27;20039;-76
2023/05/20 10:02:59;;;;;;;4.63;2.03;;;;;;;;;;5136565;27;20091;-76
2023/05/20 10:05:31;;;;;;;3.42;1.80;;;;;;;;;;5136952;27;20046;-77
2023/05/20 10:07:57;;;;;;;3.17;2.08;;;;;;;;;;5155355;27;20035;-78
2023/05/20 10:10:43;;;;;;;4.90;2.25;;;;;;;;;;5122371;27;20070;-80
2023/05/20 10:13:10;;;;;;;;;;;;;;;;;;5122911;27;20049;-79
2023/05/20 10:15:42;;;;;;;6.32;2.00;;;;;;;;;;5109931;27;19915;-78
2023/05/20 10:18:27;;;;;;;5.43;1.90;;;;;;;;;;5134259;27;20594;-76
2023/05/20 10:20:53;;;;;;;3.72;1.60;;;;;;;;;;5136860;27;20149;-77
2023/05/20 10:23:23;;;;;;;3.97;1.88;;;;;;;;;;5121877;27;20035;-78
2023/05/20 10:25:52;;;;;;;7.80;2.10;;;;;;;;;;5147933;27;20474;-76
2023/05/20 10:28:47;;;;;;;5.35;1.65;;;;;;;;;;5148474;27;20041;-78
2023/05/20 10:31:16;;;;;;;11.23;1.88;;;;;;;;;;5132262;27;20130;-77
2023/05/20 10:33:43;;;;;;;5.35;2.00;;;;;;;;;;5121788;27;20065;-77
2023/05/20 10:36:09;;;;;;;7.32;2.10;;;;;;;;;;5136202;27;20045;-78
2023/05/20 10:38:35;;;;;;;5.82;2.40;;;;;;;;;;5119066;27;20035;-77
2023/05/20 10:41:10;;;;;;;4.00;2.00;;;;;;;;;;5136132;27;20070;-77
2023/05/20 10:43:36;;;;;;;3.55;1.85;;;;;;;;;;5136218;27;20047;-78
2023/05/20 10:46:02;;;;;;;2.97;1.70;;;;;;;;;;5139937;27;20495;-76
2023/05/20 10:48:30;;;;;;;5.53;1.70;;;;;;;;;;5136101;27;20030;-78
2023/05/20 10:51:03;;;;;;;4.10;1.83;;;;;;;;;;5154769;27;20494;-80
2023/05/20 10:53:30;;;;;;;3.47;1.77;;;;;;;;;;5111810;28;20043;-79
2023/05/20 10:55:56;;;;;;;3.50;1.95;;;;;;;;;;5147853;27;20043;-78
2023/05/20 10:58:23;;;;;;;4.32;1.98;;;;;;;;;;5135801;27;20094;-77
2023/05/20 11:00:49;;;;;;;3.85;1.50;;;;;;;;;;5136015;27;20039;-80
2023/05/20 11:03:17;;;;;;;4.35;1.85;;;;;;;;;;5135384;27;20035;-78
2023/05/20 11:05:47;;;;;;;3.60;1.70;;;;;;;;;;5153852;27;20376;-80
2023/05/20 11:08:13;;;;;;;3.95;2.22;;;;;;;;;;5121004;27;20071;-79
2023/05/20 11:10:41;;;;;;;4.88;1.80;;;;;;;;;;5118584;27;20123;-78
2023/05/20 11:13:07;;;;;;;4.80;1.73;;;;;;;;;;5154432;27;20043;-79
2023/05/20 11:15:34;;;;;;;6.25;1.70;;;;;;;;;;5133412;27;20494;-79
2023/05/20 11:18:01;;;;;;;5.13;1.90;;;;;;;;;;5154121;27;20071;-79
2023/05/20 11:20:28;;;;;;;3.65;1.52;;;;;;;;;;5115431;28;20484;-79
2023/05/20 11:22:55;;;;;;;5.03;1.80;;;;;;;;;;5145211;27;20470;-77
2023/05/20 11:25:24;;;;;;;2.78;1.30;;;;;;;;;;5121408;27;20031;-77
2023/05/20 11:27:50;;;;;;;3.78;1.70;;;;;;;;;;5154037;27;20046;-79
2023/05/20 11:30:20;;;;;;;4.25;1.50;;;;;;;;;;5134199;27;20542;-76
2023/05/20 11:33:02;;;;;;;4.68;1.55;;;;;;;;;;5141961;27;20462;-80
2023/05/20 11:35:31;;;;;;;5.47;1.90;;;;;;;;;;5154119;27;20071;-77
2023/05/20 11:38:08;;;;;;;5.10;1.73;;;;;;;;;;5154256;27;20042;-79
2023/05/20 11:40:34;;;;;;;3.45;1.63;;;;;;;;;;5153884;27;20047;-79
2023/05/20 11:43:01;;;;;;;4.65;1.70;;;;;;;;;;5135616;27;20035;-77
2023/05/20 11:45:38;;;;;;;3.10;1.40;;;;;;;;;;5118269;27;20042;-78
2023/05/20 11:48:04;;;;;;;5.35;1.40;;;;;;;;;;5135389;27;20047;-78
2023/05/20 11:50:40;;;;;;;4.07;1.75;;;;;;;;;;5135542;27;20047;-78
2023/05/20 11:53:07;;;;;;;3.85;1.80;;;;;;;;;;5131459;28;20031;-78
2023/05/20 11:55:34;;;;;;;5.40;1.52;;;;;;;;;;5124987;27;20079;-80
2023/05/20 11:58:01;;;;;;;5.43;2.20;;;;;;;;;;5153971;27;20545;-77
2023/05/20 12:00:27;;;;;;;4.05;1.80;;;;;;;;;;5154056;27;20092;-78
2023/05/20 12:02:53;;;;;;;3.38;2.08;;;;;;;;;;5139370;27;20118;-77
2023/05/20 12:05:19;;;;;;;3.88;1.73;;;;;;;;;;5153498;27;20061;-78
2023/05/20 12:07:45;;;;;;;3.63;1.92;;;;;;;;;;5135061;27;20122;-76
2023/05/20 12:10:12;;;;;;;3.63;1.60;;;;;;;;;;5138920;27;20554;-77
2023/05/20 12:12:39;;;;;;;5.07;2.10;;;;;;;;;;5135192;27;20050;-80
2023/05/20 12:15:05;;;;;;;3.35;1.70;;;;;;;;;;5135158;27;20035;-79
2023/05/20 12:17:32;;;;;;;3.63;1.80;;;;;;;;;;5127290;27;20047;-78
2023/05/20 12:19:58;;;;;;;4.57;2.00;;;;;;;;;;5151969;27;20038;-78
2023/05/20 12:22:24;;;;;;;8.02;2.00;;;;;;;;;;5121515;27;20042;-77
2023/05/20 12:24:50;;;;;;;4.72;1.80;;;;;;;;;;5157202;27;20046;-77
2023/05/20 12:27:16;;;;;;;3.78;1.80;;;;;;;;;;5121115;27;20491;-77
2023/05/20 12:29:42;;;;;;;4.20;1.67;;;;;;;;;;5157259;27;20487;-78
2023/05/20 12:32:08;;;;;;;3.00;1.58;;;;;;;;;;5138684;27;20035;-79
2023/05/20 12:34:34;;;;;;;5.03;2.00;;;;;;;;;;5139144;27;20475;-79
2023/05/20 12:37:01;;;;;;;6.80;2.00;;;;;;;;;;5137528;27;20043;-76
2023/05/20 12:39:27;;;;;;;6.13;1.80;;;;;;;;;;5117775;27;20051;-77
2023/05/20 12:41:53;;;;;;;3.63;1.77;;;;;;;;;;5131794;27;20390;-79
2023/05/20 12:44:19;;;;;;;5.20;1.73;;;;;;;;;;5116140;27;20479;-79
2023/05/20 12:46:45;;;;;;;5.20;2.35;;;;;;;;;;5148055;27;20043;-79
2023/05/20 12:49:11;;;;;;;5.07;1.77;;;;;;;;;;5134840;27;20042;-79
2023/05/20 12:51:37;;;;;;;4.15;1.55;;;;;;;;;;5145708;27;20042;-80
2023/05/20 12:54:03;;;;;;;5.07;1.67;;;;;;;;;;5126685;27;20050;-77
2023/05/20 12:56:29;;;;;;;4.72;1.92;;;;;;;;;;5121008;27;20042;-76
2023/05/20 12:58:56;;;;;;;3.80;1.77;;;;;;;;;;5117970;27;20089;-77
2023/05/20 13:01:23;;;;;;;3.42;1.60;;;;;;;;;;5152133;27;20035;-76
2023/05/20 13:03:52;;;;;;;3.13;1.70;;;;;;;;;;5137871;27;20051;-77
2023/05/20 13:06:18;;;;;;;4.55;1.60;;;;;;;;;;5137582;27;20046;-79
2023/05/20 13:08:44;;;;;;;4.05;1.77;;;;;;;;;;5124410;27;20065;-78
2023/05/20 13:11:10;;;;;;;3.13;1.48;;;;;;;;;;5121275;27;20046;-78
2023/05/20 13:13:36;;;;;;;4.25;1.50;;;;;;;;;;5120950;27;20038;-77
2023/05/20 13:16:02;;;;;;;3.70;1.80;;;;;;;;;;5138199;27;20049;-79
2023/05/20 13:18:28;;;;;;;6.00;1.60;;;;;;;;;;5156371;27;20039;-79
2023/05/20 13:20:54;;;;;;;3.92;1.83;;;;;;;;;;5140099;27;20114;-77
2023/05/20 13:23:20;;;;;;;2.80;1.50;;;;;;;;;;5106861;27;20035;-78
2023/05/20 13:25:47;;;;;;;5.70;1.83;;;;;;;;;;5157286;27;20060;-81
2023/05/20 13:28:15;;;;;;;2.90;1.58;;;;;;;;;;5139616;27;20039;-80
2023/05/20 13:30:41;;;;;;;7.95;1.70;;;;;;;;;;5137759;27;20118;-81
2023/05/20 13:33:07;;;;;;;6.45;1.60;;;;;;;;;;5138253;27;20045;-80
2023/05/20 13:35:33;;;;;;;4.95;1.70;;;;;;;;;;5153311;27;20042;-77
2023/05/20 13:37:59;;;;;;;2.97;1.65;;;;;;;;;;5126979;27;20543;-78
2023/05/20 13:40:25;;;;;;;11.60;2.28;;;;;;;;;;5155746;27;20042;-76
2023/05/20 13:42:52;;;;;;;5.18;1.70;;;;;;;;;;5120556;27;20053;-77
2023/05/20 13:45:18;;;;;;;5.82;1.90;;;;;;;;;;5116954;27;20077;-77
2023/05/20 13:47:45;;;;;;;3.40;1.77;;;;;;;;;;5117106;27;20043;-78
2023/05/20 13:50:11;;;;;;;6.68;1.70;;;;;;;;;;5117032;27;20050;-77
2023/05/20 13:52:37;;;;;;;5.28;1.88;;;;;;;;;;5120437;27;20035;-76
2023/05/20 13:55:03;;;;;;;3.20;1.60;;;;;;;;;;5131713;27;20035;-78
2023/05/20 13:57:29;;;;;;;4.82;1.88;;;;;;;;;;5128964;27;20696;-78
2023/05/20 13:59:55;;;;;;;4.47;1.65;;;;;;;;;;5152283;27;20042;-78
2023/05/20 14:02:22;;;;;;;4.75;2.20;;;;;;;;;;5144989;27;20030;-78
2023/05/20 14:04:48;;;;;;;5.25;1.67;;;;;;;;;;5119914;27;20575;-77
2023/05/20 14:07:14;;;;;;;4.13;1.60;;;;;;;;;;5136687;27;20047;-78
2023/05/20 14:09:40;;;;;;;6.75;1.67;;;;;;;;;;5137188;27;20083;-78
2023/05/20 14:12:07;;;;;;;5.63;1.90;;;;;;;;;;5149149;27;20110;-77
2023/05/20 14:14:33;;;;;;;3.15;1.50;;;;;;;;;;5099755;27;20065;-79
2023/05/20 14:16:59;;;;;;;4.68;1.80;;;;;;;;;;5155342;27;20043;-78
2023/05/20 14:19:25;;;;;;;3.28;1.67;;;;;;;;;;5155725;27;20121;-79
2023/05/20 14:21:51;;;;;;;3.35;1.65;;;;;;;;;;5134253;27;20098;-78
2023/05/20 14:24:17;;;;;;;5.88;1.70;;;;;;;;;;5143043;27;20042;-79
2023/05/20 14:26:44;;;;;;;6.10;1.73;;;;;;;;;;5136496;27;20047;-78
2023/05/20 14:29:10;;;;;;;3.92;1.70;;;;;;;;;;5154780;27;20038;-75
2023/05/20 14:31:37;;;;;;;5.95;2.10;;;;;;;;;;5119421;27;20091;-76
2023/05/20 14:34:04;;;;;;;3.72;1.75;;;;;;;;;;5119283;27;20140;-79
2023/05/20 14:36:30;;;;;;;6.07;2.00;;;;;;;;;;5136328;27;20057;-77